Time;durP1;ratioP1;P1;durP2;ratioP2;P2;SDS_P1;SDS_P2;PMS_P1;PMS_P2;Temp;Humidity;BMP_temperature;BMP_pressure;BME280_temperature;BME280_humidity;BME280_pressure;Samples;Min_cycle;Max_cycle;Signal;HPM_P1;HPM_P2
2022/05/30 00:02:07;;;;;;;3.85;1.23;;;9.60;99.90;;;;;;4910254;29;20059;-77
2022/05/30 00:04:35;;;;;;;2.97;1.20;;;9.50;99.90;;;;;;4904975;29;20048;-76
2022/05/30 00:07:01;;;;;;;3.50;1.13;;;9.50;99.90;;;;;;4923673;29;20090;-77
2022/05/30 00:09:27;;;;;;;3.25;1.30;;;9.50;99.90;;;;;;4893720;29;20057;-77
2022/05/30 00:11:52;;;;;;;2.95;1.20;;;9.40;99.90;;;;;;4918776;29;20402;-77
2022/05/30 00:14:19;;;;;;;4.78;1.77;;;9.40;99.90;;;;;;4909465;29;20040;-77
2022/05/30 00:16:45;;;;;;;2.63;1.05;;;9.40;99.90;;;;;;4893802;29;20044;-77
2022/05/30 00:19:10;;;;;;;3.58;0.93;;;9.40;99.90;;;;;;4924796;29;20055;-77
2022/05/30 00:21:37;;;;;;;2.13;0.93;;;9.30;99.90;;;;;;4886862;29;20099;-77
2022/05/30 00:24:03;;;;;;;3.17;0.90;;;9.30;99.90;;;;;;4910155;29;20040;-76
2022/05/30 00:26:28;;;;;;;2.95;1.10;;;9.30;99.90;;;;;;4904659;29;20063;-77
2022/05/30 00:29:00;;;;;;;3.50;1.20;;;9.30;99.90;;;;;;4896164;29;20056;-78
2022/05/30 00:31:25;;;;;;;4.00;1.30;;;9.40;99.90;;;;;;4906396;29;20044;-77
2022/05/30 00:33:51;;;;;;;3.05;1.30;;;9.30;99.90;;;;;;4922484;29;20474;-77
2022/05/30 00:36:17;;;;;;;2.50;0.90;;;9.30;99.90;;;;;;4902853;29;20064;-77
2022/05/30 00:38:43;;;;;;;4.30;1.10;;;9.30;99.90;;;;;;4906187;29;20080;-76
2022/05/30 00:41:09;;;;;;;3.72;1.40;;;9.40;99.90;;;;;;4919010;29;20082;-76
2022/05/30 00:43:38;;;;;;;4.03;1.08;;;9.30;99.90;;;;;;4910244;29;20065;-76
2022/05/30 00:46:11;;;;;;;3.92;1.17;;;9.30;99.90;;;;;;4910913;29;20119;-77
2022/05/30 00:49:07;;;;;;;2.20;0.85;;;9.30;99.90;;;;;;4910815;29;20075;-76
2022/05/30 00:51:47;;;;;;;3.30;0.90;;;9.20;99.90;;;;;;4893231;29;20087;-77
2022/05/30 00:54:18;;;;;;;2.75;0.93;;;9.20;99.90;;;;;;4923442;29;20047;-77
2022/05/30 00:56:48;;;;;;;3.38;1.23;;;9.20;99.90;;;;;;4887686;29;20087;-76
2022/05/30 00:59:14;;;;;;;3.30;1.00;;;9.20;99.90;;;;;;4893622;29;20383;-77
2022/05/30 01:01:40;;;;;;;3.63;1.20;;;9.10;99.90;;;;;;4907638;29;20047;-76
2022/05/30 01:07:00;;;;;;;2.72;0.95;;;8.20;99.90;;;;;;4923542;29;20401;-79
2022/05/30 01:09:30;;;;;;;2.65;1.08;;;9.10;99.90;;;;;;4909543;29;20058;-76
2022/05/30 01:12:02;;;;;;;5.03;1.10;;;9.00;99.90;;;;;;4924952;29;20055;-76
2022/05/30 01:14:35;;;;;;;3.42;0.80;;;9.00;99.90;;;;;;4925384;29;20110;-77
2022/05/30 01:17:03;;;;;;;3.53;1.00;;;9.00;99.90;;;;;;4891685;29;20498;-77
2022/05/30 01:19:56;;;;;;;3.60;1.00;;;9.00;99.90;;;;;;4900263;29;20050;-76
2022/05/30 01:22:46;;;;;;;2.83;1.15;;;9.00;99.90;;;;;;4911411;29;20055;-76
2022/05/30 01:25:36;;;;;;;3.95;1.40;;;9.10;99.90;;;;;;4909027;29;20639;-76
2022/05/30 01:28:22;;;;;;;6.95;1.20;;;9.20;99.90;;;;;;4895710;29;20056;-77
2022/05/30 01:30:49;;;;;;;2.90;1.10;;;9.20;99.90;;;;;;4924630;29;20402;-77
2022/05/30 01:33:15;;;;;;;4.07;1.30;;;9.50;99.90;;;;;;4919679;29;20419;-76
2022/05/30 01:35:42;;;;;;;3.53;0.95;;;9.50;99.90;;;;;;4924075;29;20052;-76
2022/05/30 01:38:09;;;;;;;4.28;1.25;;;9.40;99.90;;;;;;4908763;29;20442;-76
2022/05/30 01:40:40;;;;;;;3.33;1.30;;;9.40;99.90;;;;;;4907323;29;20123;-77
2022/05/30 01:43:06;;;;;;;1.50;1.00;;;9.50;99.90;;;;;;4910152;29;20040;-77
2022/05/30 01:45:32;;;;;;;3.58;0.85;;;9.40;99.90;;;;;;4874428;29;20085;-77
2022/05/30 01:47:58;;;;;;;2.35;0.80;;;9.40;99.90;;;;;;4924572;29;20103;-76
2022/05/30 01:50:26;;;;;;;2.85;0.88;;;9.40;99.90;;;;;;4910225;29;20720;-76
2022/05/30 01:52:52;;;;;;;3.03;0.90;;;9.50;99.90;;;;;;4925072;29;20056;-77
2022/05/30 01:55:17;;;;;;;1.95;0.90;;;9.50;99.90;;;;;;4922621;29;20112;-76
2022/05/30 01:57:43;;;;;;;3.58;1.10;;;9.50;99.90;;;;;;4903333;29;20056;-77
2022/05/30 02:00:13;;;;;;;1.98;0.82;;;9.50;99.90;;;;;;4896689;29;20055;-77
2022/05/30 02:02:39;;;;;;;3.00;0.70;;;9.50;99.90;;;;;;4912927;29;20161;-76
2022/05/30 02:05:06;;;;;;;2.42;0.85;;;9.50;99.90;;;;;;4892859;29;20091;-76
2022/05/30 02:07:32;;;;;;;2.85;0.80;;;9.50;99.90;;;;;;4911404;29;20524;-76
2022/05/30 02:09:59;;;;;;;4.00;1.05;;;9.50;99.90;;;;;;4896873;29;20056;-77
2022/05/30 02:12:25;;;;;;;1.80;0.80;;;9.50;99.90;;;;;;4897052;29;20075;-78
2022/05/30 02:14:50;;;;;;;2.42;0.95;;;9.40;99.90;;;;;;4906174;29;20091;-76
2022/05/30 02:17:16;;;;;;;3.17;0.73;;;9.50;99.90;;;;;;4895426;29;20052;-77
2022/05/30 02:19:44;;;;;;;2.78;0.70;;;9.50;99.90;;;;;;4907338;29;20418;-76
2022/05/30 02:22:18;;;;;;;2.50;0.73;;;9.50;99.90;;;;;;4912934;29;20510;-76
2022/05/30 02:24:44;;;;;;;2.83;0.90;;;9.50;99.90;;;;;;4893561;29;20058;-76
2022/05/30 02:27:12;;;;;;;5.38;0.90;;;9.40;99.90;;;;;;4896419;29;20052;-77
2022/05/30 02:29:38;;;;;;;1.60;1.00;;;9.40;99.90;;;;;;4921270;29;20063;-77
2022/05/30 02:32:05;;;;;;;3.75;1.10;;;9.40;99.90;;;;;;4906348;29;20052;-77
2022/05/30 02:37:16;;;;;;;2.83;0.90;;;9.40;99.90;;;;;;4906134;29;20067;-77
2022/05/30 02:39:42;;;;;;;2.97;1.05;;;9.40;99.90;;;;;;4904409;29;20125;-77
2022/05/30 02:42:09;;;;;;;1.55;0.85;;;9.40;99.90;;;;;;4922488;29;20051;-76
2022/05/30 02:44:35;;;;;;;1.85;0.88;;;9.40;99.90;;;;;;4909816;29;20074;-76
2022/05/30 02:47:00;;;;;;;2.00;0.90;;;9.60;99.90;;;;;;4911118;29;20115;-78
2022/05/30 02:49:27;;;;;;;2.15;0.80;;;9.50;99.90;;;;;;4922649;29;20427;-78
2022/05/30 02:51:54;;;;;;;1.60;1.00;;;9.40;99.90;;;;;;4922518;29;20048;-76
2022/05/30 02:54:20;;;;;;;2.10;0.85;;;9.40;99.90;;;;;;4896153;29;20051;-77
2022/05/30 02:56:51;;;;;;;1.98;0.80;;;9.40;99.90;;;;;;4907175;29;20173;-77
2022/05/30 02:59:18;;;;;;;1.73;0.82;;;9.40;99.90;;;;;;4896021;29;20103;-76
2022/05/30 03:01:44;;;;;;;2.70;0.90;;;9.40;99.90;;;;;;4908735;29;20100;-76
2022/05/30 03:04:10;;;;;;;2.88;0.80;;;9.40;99.90;;;;;;4924579;29;20044;-76
2022/05/30 03:06:36;;;;;;;1.52;0.70;;;9.40;99.90;;;;;;4898028;29;20044;-77
2022/05/30 03:09:03;;;;;;;4.32;1.10;;;9.50;99.90;;;;;;4913221;29;20629;-77
2022/05/30 03:11:29;;;;;;;3.83;1.10;;;9.50;99.90;;;;;;4922412;29;20111;-76
2022/05/30 03:13:55;;;;;;;4.05;1.30;;;9.50;99.90;;;;;;4892723;29;20056;-77
2022/05/30 03:16:21;;;;;;;6.38;1.42;;;9.50;99.90;;;;;;4907177;29;20067;-75
2022/05/30 03:18:47;;;;;;;3.22;1.08;;;9.50;99.90;;;;;;4910446;29;20048;-76
2022/05/30 03:21:12;;;;;;;2.78;0.90;;;9.50;99.90;;;;;;4920853;29;20082;-76
2022/05/30 03:23:38;;;;;;;2.92;0.90;;;9.50;99.90;;;;;;4910468;29;20616;-76
2022/05/30 03:26:05;;;;;;;2.70;1.00;;;9.50;99.90;;;;;;4921473;29;20047;-75
2022/05/30 03:28:32;;;;;;;1.85;0.88;;;9.50;99.90;;;;;;4923989;29;20048;-77
2022/05/30 03:30:59;;;;;;;1.73;0.80;;;9.50;99.90;;;;;;4921280;29;20887;-75
2022/05/30 03:33:25;;;;;;;3.75;1.15;;;9.50;99.90;;;;;;4919135;29;20120;-76
2022/05/30 03:35:51;;;;;;;4.05;1.20;;;9.50;99.90;;;;;;4908102;29;20135;-76
2022/05/30 03:38:16;;;;;;;4.65;0.90;;;9.50;99.90;;;;;;4904417;29;20484;-76
2022/05/30 03:40:42;;;;;;;3.03;1.20;;;9.50;99.90;;;;;;4901227;29;20051;-76
2022/05/30 03:43:09;;;;;;;5.05;1.15;;;9.50;99.90;;;;;;4894115;29;20044;-75
2022/05/30 03:45:41;;;;;;;4.00;1.10;;;9.50;99.90;;;;;;4920276;29;20786;-76
2022/05/30 03:48:08;;;;;;;2.70;1.00;;;9.40;99.90;;;;;;4906554;29;20044;-76
2022/05/30 03:50:36;;;;;;;4.10;1.10;;;9.40;99.90;;;;;;4892993;29;20064;-76
2022/05/30 03:53:05;;;;;;;3.20;1.05;;;9.40;99.90;;;;;;4903416;29;20071;-75
2022/05/30 03:55:36;;;;;;;3.58;1.05;;;9.40;99.90;;;;;;4922937;29;20055;-76
2022/05/30 03:58:04;;;;;;;2.45;1.00;;;9.50;99.90;;;;;;4909605;29;20173;-76
2022/05/30 04:00:31;;;;;;;3.50;1.20;;;9.50;99.90;;;;;;4908734;29;20166;-76
2022/05/30 04:02:58;;;;;;;1.75;0.90;;;9.50;99.90;;;;;;4921665;29;20041;-76
2022/05/30 04:05:24;;;;;;;2.95;0.82;;;9.50;99.90;;;;;;4894318;29;20083;-75
2022/05/30 04:07:49;;;;;;;2.13;1.20;;;9.50;99.90;;;;;;4918263;29;20056;-75
2022/05/30 04:10:15;;;;;;;3.55;1.25;;;9.50;99.90;;;;;;4907931;29;20051;-76
2022/05/30 04:12:42;;;;;;;3.90;0.90;;;9.50;99.90;;;;;;4892424;29;20052;-76
2022/05/30 04:15:13;;;;;;;2.22;1.00;;;9.50;99.90;;;;;;4883968;29;20055;-75
2022/05/30 04:17:39;;;;;;;3.63;1.08;;;9.50;99.90;;;;;;4915991;29;20340;-75
2022/05/30 04:20:06;;;;;;;3.63;1.05;;;9.50;99.90;;;;;;4906111;29;20071;-75
2022/05/30 04:22:32;;;;;;;1.05;0.70;;;9.50;99.90;;;;;;4905034;29;20044;-76
2022/05/30 04:24:57;;;;;;;1.33;0.60;;;9.50;99.90;;;;;;4893538;29;20060;-76
2022/05/30 04:27:23;;;;;;;1.08;0.82;;;9.50;99.90;;;;;;4903936;29;20550;-76
2022/05/30 04:29:49;;;;;;;2.33;0.80;;;9.50;99.90;;;;;;4904512;29;20067;-76
2022/05/30 04:32:16;;;;;;;2.10;0.70;;;9.60;99.90;;;;;;4893329;29;20067;-75
2022/05/30 04:34:43;;;;;;;1.90;0.70;;;9.60;99.90;;;;;;4915783;29;20120;-76
2022/05/30 04:37:09;;;;;;;2.80;0.80;;;9.80;99.90;;;;;;4909414;29;20474;-76
2022/05/30 04:39:35;;;;;;;2.03;0.90;;;9.70;99.90;;;;;;4906811;29;20066;-76
2022/05/30 04:42:01;;;;;;;3.30;1.17;;;9.80;99.90;;;;;;4919676;29;20130;-76
2022/05/30 04:44:27;;;;;;;1.70;0.90;;;9.80;99.90;;;;;;4908770;29;20074;-76
2022/05/30 04:46:55;;;;;;;2.10;0.70;;;9.90;99.90;;;;;;4922873;29;20047;-76
2022/05/30 04:49:21;;;;;;;5.35;0.85;;;9.90;99.90;;;;;;4904713;29;20135;-76
2022/05/30 04:51:48;;;;;;;1.10;0.60;;;10.00;99.90;;;;;;4902787;29;20071;-76
2022/05/30 04:54:14;;;;;;;1.83;0.80;;;10.00;99.90;;;;;;4916016;29;20119;-75
2022/05/30 04:56:40;;;;;;;2.85;0.73;;;10.00;99.90;;;;;;4903745;29;20135;-79
2022/05/30 04:59:07;;;;;;;3.45;0.98;;;10.00;99.90;;;;;;4886396;29;20074;-76
2022/05/30 05:01:33;;;;;;;2.45;0.70;;;10.10;99.90;;;;;;4904285;29;20119;-76
2022/05/30 05:03:59;;;;;;;3.17;0.88;;;10.20;99.90;;;;;;4907749;29;20051;-76
2022/05/30 05:06:26;;;;;;;2.58;0.68;;;10.30;99.90;;;;;;4876192;29;20134;-76
2022/05/30 05:08:57;;;;;;;1.98;0.70;;;10.30;99.90;;;;;;4892763;29;20056;-77
2022/05/30 05:11:31;;;;;;;2.10;0.80;;;10.40;99.90;;;;;;4889652;29;20044;-77
2022/05/30 05:13:57;;;;;;;3.03;0.82;;;10.50;99.90;;;;;;4903325;29;20052;-76
2022/05/30 05:16:27;;;;;;;4.60;0.68;;;10.50;99.90;;;;;;4910274;29;20055;-77
2022/05/30 05:18:54;;;;;;;2.08;0.75;;;10.60;99.90;;;;;;4900771;29;20066;-76
2022/05/30 05:21:26;;;;;;;3.95;0.80;;;10.60;99.90;;;;;;4910555;29;20044;-76
2022/05/30 05:23:52;;;;;;;1.10;0.70;;;10.60;99.90;;;;;;4919162;29;20057;-77
2022/05/30 05:26:19;;;;;;;1.67;0.70;;;10.70;99.90;;;;;;4874801;29;20407;-77
2022/05/30 05:28:46;;;;;;;2.72;0.70;;;10.70;99.90;;;;;;4917285;29;20056;-77
2022/05/30 05:31:35;;;;;;;4.05;1.00;;;10.70;99.90;;;;;;4906132;29;20486;-77
2022/05/30 05:34:04;;;;;;;1.50;0.60;;;10.80;99.90;;;;;;4908658;29;20067;-77
2022/05/30 05:36:35;;;;;;;1.35;0.60;;;10.80;99.90;;;;;;4908723;29;20044;-77
2022/05/30 05:39:01;;;;;;;0.77;0.55;;;10.80;99.90;;;;;;4901091;29;20600;-77
2022/05/30 05:41:27;;;;;;;2.45;0.70;;;10.80;99.90;;;;;;4903862;29;20048;-77
2022/05/30 05:43:53;;;;;;;1.75;0.50;;;10.70;99.90;;;;;;4907781;29;20052;-76
2022/05/30 05:46:24;;;;;;;2.85;0.70;;;10.80;99.90;;;;;;4895043;29;20052;-76
2022/05/30 05:48:54;;;;;;;1.90;0.63;;;10.90;99.90;;;;;;4904491;29;20087;-77
2022/05/30 05:51:22;;;;;;;6.50;0.75;;;11.10;99.90;;;;;;4921356;29;20064;-78
2022/05/30 05:53:48;;;;;;;2.67;0.85;;;11.20;99.90;;;;;;4906507;29;20106;-76
2022/05/30 05:56:24;;;;;;;2.60;0.70;;;11.20;99.90;;;;;;4909132;29;20044;-76
2022/05/30 05:58:50;;;;;;;2.00;0.88;;;11.40;99.90;;;;;;4889713;29;20818;-83
2022/05/30 06:01:20;;;;;;;4.90;1.15;;;11.50;99.90;;;;;;4908878;29;20048;-79
2022/05/30 06:03:46;;;;;;;2.20;0.82;;;11.80;99.90;;;;;;4923435;29;20061;-77
2022/05/30 06:06:12;;;;;;;3.22;1.10;;;11.90;99.90;;;;;;4874027;29;20059;-77
2022/05/30 06:08:37;;;;;;;2.53;0.90;;;12.00;99.90;;;;;;4890946;29;20059;-78
2022/05/30 06:11:08;;;;;;;2.10;0.90;;;12.10;99.90;;;;;;4916593;29;20082;-77
2022/05/30 06:13:53;;;;;;;2.40;0.90;;;12.20;99.90;;;;;;4909346;29;20209;-77
2022/05/30 06:16:29;;;;;;;4.50;1.10;;;12.20;99.90;;;;;;4907923;29;20055;-78
2022/05/30 06:18:57;;;;;;;6.03;0.93;;;12.10;99.90;;;;;;4911286;29;20163;-76
2022/05/30 06:21:25;;;;;;;2.60;0.80;;;12.10;99.90;;;;;;4906104;29;20051;-79
2022/05/30 06:23:53;;;;;;;1.33;0.70;;;12.00;99.90;;;;;;4897892;29;20056;-77
2022/05/30 06:26:19;;;;;;;5.10;0.93;;;11.90;99.90;;;;;;4906465;29;20044;-76
2022/05/30 06:28:45;;;;;;;2.85;0.95;;;11.90;99.90;;;;;;4904569;29;20056;-77
2022/05/30 06:31:21;;;;;;;2.38;0.70;;;11.80;99.90;;;;;;4893606;29;20131;-78
2022/05/30 06:33:47;;;;;;;1.63;0.70;;;11.80;99.90;;;;;;4909997;29;20473;-79
2022/05/30 06:36:17;;;;;;;2.20;0.68;;;11.70;99.90;;;;;;4912141;29;20043;-78
2022/05/30 06:38:51;;;;;;;2.25;0.80;;;11.70;99.90;;;;;;4913240;29;20044;-77
2022/05/30 06:41:19;;;;;;;1.27;0.60;;;11.60;99.90;;;;;;4914734;29;20051;-78
2022/05/30 06:43:45;;;;;;;1.95;0.90;;;11.60;99.90;;;;;;4912416;29;20091;-76
2022/05/30 06:46:13;;;;;;;3.13;0.80;;;11.60;99.90;;;;;;4903320;29;20056;-76
2022/05/30 06:48:39;;;;;;;2.85;0.70;;;11.60;99.90;;;;;;4890585;29;21391;-77
2022/05/30 06:51:07;;;;;;;2.53;0.63;;;11.60;99.90;;;;;;4896672;29;20091;-77
2022/05/30 06:53:33;;;;;;;1.80;0.75;;;11.70;99.90;;;;;;4894103;29;20950;-77
2022/05/30 06:55:58;;;;;;;2.58;0.80;;;11.70;99.90;;;;;;4873411;29;20147;-76
2022/05/30 06:58:25;;;;;;;3.83;0.98;;;11.70;99.90;;;;;;4890309;29;20056;-76
2022/05/30 07:00:51;;;;;;;3.30;0.95;;;11.80;99.90;;;;;;4907909;29;20060;-78
2022/05/30 07:03:17;;;;;;;3.78;0.70;;;11.90;99.90;;;;;;4908250;29;20104;-76
2022/05/30 07:05:45;;;;;;;2.72;0.80;;;12.00;99.90;;;;;;4907432;29;20451;-77
2022/05/30 07:08:12;;;;;;;1.85;0.68;;;12.00;99.90;;;;;;4910096;29;20048;-82
2022/05/30 07:10:39;;;;;;;3.92;0.90;;;12.10;99.90;;;;;;4895515;29;20486;-76
2022/05/30 07:13:06;;;;;;;2.03;0.90;;;12.20;99.90;;;;;;4919947;29;20111;-77
2022/05/30 07:15:35;;;;;;;3.03;0.85;;;12.30;99.90;;;;;;4912690;29;20402;-77
2022/05/30 07:18:11;;;;;;;2.90;0.90;;;12.40;99.90;;;;;;4896982;29;20056;-78
2022/05/30 07:20:37;;;;;;;1.40;0.70;;;12.40;99.90;;;;;;4896678;29;20052;-78
2022/05/30 07:23:03;;;;;;;1.08;0.60;;;12.60;99.90;;;;;;4915565;29;20044;-77
2022/05/30 07:25:29;;;;;;;1.52;0.68;;;12.60;99.90;;;;;;4910374;29;20048;-77
2022/05/30 07:27:55;;;;;;;2.38;0.85;;;12.80;99.90;;;;;;4910390;29;20794;-75
2022/05/30 07:30:21;;;;;;;1.00;0.63;;;13.00;99.90;;;;;;4888743;29;20123;-76
2022/05/30 07:32:46;;;;;;;3.00;0.80;;;13.20;99.90;;;;;;4871922;29;20052;-76
2022/05/30 07:35:12;;;;;;;1.73;0.80;;;13.30;99.90;;;;;;4878097;29;20578;-82
2022/05/30 07:37:42;;;;;;;3.08;0.80;;;13.40;99.90;;;;;;4877355;29;20083;-83
2022/05/30 07:40:09;;;;;;;2.20;0.73;;;13.40;99.90;;;;;;4928287;29;20049;-82
2022/05/30 07:42:34;;;;;;;2.83;0.80;;;13.50;99.90;;;;;;4896872;29;20077;-82
2022/05/30 07:45:01;;;;;;;3.33;0.70;;;13.60;99.90;;;;;;4882239;29;20048;-83
2022/05/30 07:47:27;;;;;;;2.67;0.93;;;13.70;99.90;;;;;;4925025;29;20052;-77
2022/05/30 07:49:53;;;;;;;2.60;0.80;;;13.60;99.90;;;;;;4909329;29;20060;-80
2022/05/30 07:52:19;;;;;;;4.60;0.88;;;13.50;99.90;;;;;;4923382;29;20056;-77
2022/05/30 07:54:45;;;;;;;2.70;0.80;;;13.40;99.90;;;;;;4904569;29;20051;-79
2022/05/30 07:57:11;;;;;;;3.00;0.80;;;13.40;99.90;;;;;;4903389;29;20044;-79
2022/05/30 07:59:37;;;;;;;4.85;1.10;;;13.30;99.90;;;;;;4922262;29;20052;-78
2022/05/30 08:02:04;;;;;;;2.40;0.75;;;13.10;99.90;;;;;;4925656;29;20047;-80
2022/05/30 08:04:30;;;;;;;3.00;0.82;;;12.90;99.90;;;;;;4889912;29;20053;-78
2022/05/30 08:06:56;;;;;;;3.83;1.00;;;12.80;99.90;;;;;;4894532;29;20080;-80
2022/05/30 08:09:22;;;;;;;1.48;0.77;;;12.70;99.90;;;;;;4872185;29;20052;-78
2022/05/30 08:11:47;;;;;;;3.63;0.80;;;12.70;99.90;;;;;;4879697;29;20059;-78
2022/05/30 08:14:14;;;;;;;2.63;1.00;;;12.70;99.90;;;;;;4873501;29;20127;-79
2022/05/30 08:16:39;;;;;;;4.20;1.40;;;12.60;99.90;;;;;;4882167;29;20051;-78
2022/05/30 08:19:06;;;;;;;5.22;1.58;;;12.60;99.90;;;;;;4911261;29;20053;-79
2022/05/30 08:21:32;;;;;;;4.65;1.40;;;12.50;99.90;;;;;;4904589;29;20334;-79
2022/05/30 08:23:58;;;;;;;4.72;1.23;;;12.50;99.90;;;;;;4921820;29;20502;-78
2022/05/30 08:26:23;;;;;;;8.57;1.52;;;12.50;99.90;;;;;;4906314;29;20160;-78
2022/05/30 08:31:52;;;;;;;3.47;0.90;;;12.40;99.90;;;;;;4925418;29;20053;-84
2022/05/30 08:34:18;;;;;;;5.10;1.20;;;12.40;99.90;;;;;;4929250;29;20062;-84
2022/05/30 08:36:44;;;;;;;3.75;1.10;;;12.50;99.90;;;;;;4914140;29;20044;-84
2022/05/30 08:41:55;;;;;;;2.92;1.00;;;12.60;99.90;;;;;;4912200;29;20060;-85
2022/05/30 08:44:20;;;;;;;6.03;1.35;;;11.70;99.90;;;;;;4910588;29;20052;-80
2022/05/30 08:47:00;;;;;;;4.63;1.25;;;12.80;99.90;;;;;;4916296;29;20052;-77
2022/05/30 08:49:49;;;;;;;2.80;1.00;;;13.40;99.90;;;;;;4895179;29;20052;-77
2022/05/30 08:52:26;;;;;;;3.30;1.00;;;13.90;99.90;;;;;;4892846;29;20052;-79
2022/05/30 08:55:02;;;;;;;6.82;1.20;;;14.30;99.90;;;;;;4907458;29;20057;-77
2022/05/30 08:58:00;;;;;;;4.93;1.10;;;14.60;99.90;;;;;;4916857;29;20542;-76
2022/05/30 09:00:38;;;;;;;3.70;1.05;;;14.80;99.90;;;;;;4888384;29;20062;-76
2022/05/30 09:03:17;;;;;;;2.58;0.80;;;14.90;99.90;;;;;;4892737;29;20036;-77
2022/05/30 09:06:21;;;;;;;4.18;1.00;;;14.90;99.90;;;;;;4903100;29;20056;-77
2022/05/30 09:08:52;;;;;;;2.75;1.00;;;15.00;99.90;;;;;;4917864;29;20434;-76
2022/05/30 09:11:24;;;;;;;5.38;0.80;;;15.30;99.90;;;;;;4901384;29;20056;-76
2022/05/30 09:13:51;;;;;;;3.03;0.80;;;15.40;99.90;;;;;;4908789;29;20736;-78
2022/05/30 09:16:31;;;;;;;3.00;0.90;;;15.60;99.90;;;;;;4885627;29;20052;-77
2022/05/30 09:18:59;;;;;;;3.45;0.80;;;15.80;99.90;;;;;;4903911;29;20055;-77
2022/05/30 09:21:30;;;;;;;2.63;0.95;;;16.00;99.90;;;;;;4893912;29;20051;-77
2022/05/30 09:23:56;;;;;;;2.33;0.70;;;16.00;99.90;;;;;;4911655;29;20056;-78
2022/05/30 09:26:26;;;;;;;2.28;0.88;;;16.30;99.90;;;;;;4911098;29;20048;-78
2022/05/30 09:28:53;;;;;;;2.58;0.80;;;16.30;99.90;;;;;;4905694;29;20068;-76
2022/05/30 09:31:34;;;;;;;4.32;1.02;;;16.20;99.90;;;;;;4892808;29;20143;-76
2022/05/30 09:34:00;;;;;;;2.70;1.00;;;16.30;99.90;;;;;;4889164;29;20127;-76
2022/05/30 09:36:28;;;;;;;4.38;1.10;;;16.10;99.90;;;;;;4893633;29;20142;-76
2022/05/30 09:39:04;;;;;;;3.20;0.90;;;16.20;99.90;;;;;;4912535;29;20131;-77
2022/05/30 09:41:46;;;;;;;3.90;1.05;;;16.30;99.90;;;;;;4905473;29;20043;-77
2022/05/30 09:44:20;;;;;;;4.65;0.90;;;16.30;99.90;;;;;;4890505;29;20044;-77
2022/05/30 09:47:02;;;;;;;3.17;0.90;;;16.20;99.90;;;;;;4912146;29;20494;-76
2022/05/30 09:49:40;;;;;;;5.82;1.17;;;16.30;99.90;;;;;;4921106;29;20044;-77
2022/05/30 09:52:32;;;;;;;2.83;0.85;;;16.30;99.90;;;;;;4905051;29;20078;-78
2022/05/30 09:54:59;;;;;;;4.95;1.00;;;16.60;99.90;;;;;;4902394;29;20052;-78
2022/05/30 09:57:42;;;;;;;4.00;0.80;;;16.90;99.90;;;;;;4902727;29;20045;-77
2022/05/30 10:00:29;;;;;;;3.45;1.00;;;17.20;99.90;;;;;;4918122;29;20055;-79
2022/05/30 10:03:23;;;;;;;3.85;1.10;;;17.30;99.90;;;;;;4916730;29;20040;-78
2022/05/30 10:05:49;;;;;;;2.80;1.30;;;17.40;99.90;;;;;;4917812;29;20061;-77
2022/05/30 10:08:27;;;;;;;5.32;0.90;;;17.60;99.90;;;;;;4910242;29;20049;-78
2022/05/30 10:10:56;;;;;;;2.10;0.90;;;17.50;99.90;;;;;;4925820;29;20704;-76
2022/05/30 10:13:40;;;;;;;6.70;0.90;;;17.20;99.90;;;;;;4904664;29;20165;-77
2022/05/30 10:16:14;;;;;;;2.75;1.33;;;16.80;99.90;;;;;;4890080;29;20064;-78
2022/05/30 10:18:54;;;;;;;3.55;0.90;;;16.50;99.90;;;;;;4906762;29;20052;-77
2022/05/30 10:28:14;;;;;;;5.13;0.90;;;16.30;99.90;;;;;;4905604;29;20564;-76
2022/05/30 10:30:56;;;;;;;2.47;0.80;;;16.60;99.90;;;;;;4906942;29;20048;-77
2022/05/30 10:33:55;;;;;;;3.85;0.80;;;16.60;99.90;;;;;;4918893;29;20040;-78
2022/05/30 10:36:21;;;;;;;3.10;0.85;;;16.50;99.90;;;;;;4910974;29;20084;-78
2022/05/30 10:38:46;;;;;;;2.42;0.82;;;16.60;99.90;;;;;;4910518;29;20052;-78
2022/05/30 10:41:38;;;;;;;2.80;0.70;;;16.60;99.90;;;;;;4920068;29;20056;-78
2022/05/30 10:44:07;;;;;;;2.40;0.90;;;16.90;99.90;;;;;;4920452;29;20068;-77
2022/05/30 10:46:55;;;;;;;2.72;0.70;;;17.30;99.90;;;;;;4919405;29;20044;-78
2022/05/30 10:49:25;;;;;;;6.28;1.23;;;17.40;99.90;;;;;;4905624;29;20462;-78
2022/05/30 10:52:00;;;;;;;3.72;1.35;;;17.80;99.90;;;;;;4919774;29;20071;-78
2022/05/30 10:54:37;;;;;;;2.20;0.80;;;18.20;99.90;;;;;;4904131;29;20135;-80
2022/05/30 10:57:16;;;;;;;3.08;0.95;;;18.20;99.90;;;;;;4921432;29;20048;-84
2022/05/30 11:00:02;;;;;;;3.95;1.00;;;18.30;99.90;;;;;;4907888;29;20411;-85
2022/05/30 11:02:46;;;;;;;2.90;0.90;;;18.60;99.90;;;;;;4905037;29;20049;-82
2022/05/30 11:05:43;;;;;;;1.75;0.70;;;18.60;99.90;;;;;;4919307;29;20056;-76
2022/05/30 11:08:14;;;;;;;;;;;18.90;99.90;;;;;;4905074;29;20055;-79
2022/05/30 11:10:54;;;;;;;1.52;0.52;;;18.90;99.90;;;;;;4890831;29;20017;-76
2022/05/30 11:13:22;;;;;;;2.05;0.73;;;18.90;99.90;;;;;;4910860;29;20217;-76
2022/05/30 11:16:01;;;;;;;1.13;0.50;;;18.40;99.90;;;;;;4903138;29;20047;-77
2022/05/30 11:18:31;;;;;;;3.63;0.70;;;18.40;99.90;;;;;;4903872;29;20060;-77
2022/05/30 11:21:32;;;;;;;5.40;1.08;;;18.30;99.90;;;;;;4903410;29;20056;-77
2022/05/30 11:24:04;;;;;;;2.72;0.75;;;18.40;99.90;;;;;;4891365;29;20075;-83
2022/05/30 11:27:00;;;;;;;3.47;0.80;;;18.60;99.90;;;;;;4921446;29;20059;-83
2022/05/30 11:29:38;;;;;;;3.25;0.68;;;18.60;99.90;;;;;;4920342;29;20063;-85
2022/05/30 11:32:28;;;;;;;4.50;0.98;;;18.50;99.90;;;;;;4911449;29;20112;-83
2022/05/30 11:35:05;;;;;;;2.55;0.82;;;18.20;99.90;;;;;;4908297;29;20044;-85
2022/05/30 11:37:49;;;;;;;3.88;0.95;;;18.30;99.90;;;;;;4908688;29;20060;-78
2022/05/30 11:40:32;;;;;;;1.98;0.80;;;18.70;99.90;;;;;;4904322;29;20044;-78
2022/05/30 11:43:17;;;;;;;2.88;0.90;;;19.40;99.90;;;;;;4896089;29;20401;-78
2022/05/30 11:46:01;;;;;;;3.97;1.45;;;19.90;99.90;;;;;;4922946;29;20036;-78
2022/05/30 11:48:51;;;;;;;2.92;0.80;;;19.70;99.90;;;;;;4903305;29;20977;-78
2022/05/30 11:51:16;;;;;;;3.40;0.88;;;19.20;99.90;;;;;;4921112;29;20064;-78
2022/05/30 11:54:04;;;;;;;3.28;0.70;;;18.70;99.90;;;;;;4905531;29;20183;-78
2022/05/30 11:56:51;;;;;;;1.85;0.68;;;18.70;99.90;;;;;;4909975;29;20053;-78
2022/05/30 11:59:20;;;;;;;1.70;0.60;;;18.60;99.90;;;;;;4908910;29;20063;-78
2022/05/30 12:01:49;;;;;;;2.28;0.70;;;18.50;99.90;;;;;;4906904;29;20074;-78
2022/05/30 12:04:35;;;;;;;1.65;0.80;;;18.50;99.90;;;;;;4913495;29;20079;-79
2022/05/30 12:07:10;;;;;;;2.75;0.90;;;19.20;99.90;;;;;;4908338;29;20155;-79
2022/05/30 12:09:54;;;;;;;2.42;0.60;;;19.70;99.90;;;;;;4909378;29;20059;-78
2022/05/30 12:12:53;;;;;;;2.45;0.90;;;20.20;99.90;;;;;;4888174;29;20195;-78
2022/05/30 12:15:59;;;;;;;1.83;0.63;;;20.40;99.90;;;;;;4911014;29;20058;-79
2022/05/30 12:24:19;;;;;;;1.33;0.55;;;20.60;99.60;;;;;;4902486;29;20047;-79
2022/05/30 12:26:55;;;;;;;1.48;0.50;;;20.80;99.20;;;;;;4910105;29;20071;-78
2022/05/30 12:29:31;;;;;;;0.80;0.50;;;20.80;98.70;;;;;;4902996;29;20056;-78
2022/05/30 12:32:12;;;;;;;2.53;0.65;;;20.70;98.80;;;;;;4895461;29;20071;-78
2022/05/30 12:35:10;;;;;;;2.03;0.60;;;20.60;98.90;;;;;;4919763;29;20707;-77
2022/05/30 12:37:46;;;;;;;1.88;0.70;;;20.40;97.80;;;;;;4901665;29;20068;-78
2022/05/30 12:40:27;;;;;;;1.75;0.60;;;20.80;99.20;;;;;;4918757;29;20054;-78
2022/05/30 12:43:19;;;;;;;2.05;0.82;;;21.00;98.60;;;;;;4919520;29;20044;-77
2022/05/30 12:45:57;;;;;;;2.20;0.50;;;21.10;97.90;;;;;;4919206;29;20648;-79
2022/05/30 12:48:28;;;;;;;1.73;0.50;;;21.30;97.50;;;;;;4900588;29;20056;-78
2022/05/30 12:50:54;;;;;;;2.15;0.57;;;21.10;97.20;;;;;;4909464;29;20056;-78
2022/05/30 12:53:22;;;;;;;2.65;0.60;;;21.00;97.60;;;;;;4909895;29;20063;-80
2022/05/30 12:55:51;;;;;;;3.47;0.80;;;20.80;97.50;;;;;;4909352;29;20059;-79
2022/05/30 12:58:43;;;;;;;1.90;0.60;;;21.00;98.00;;;;;;4889391;29;20059;-81
2022/05/30 13:01:23;;;;;;;1.60;0.60;;;21.30;97.80;;;;;;4890767;29;20077;-81
2022/05/30 13:04:26;;;;;;;1.70;0.70;;;21.60;97.20;;;;;;4890005;29;20131;-80
2022/05/30 13:06:58;;;;;;;2.83;1.13;;;22.10;97.60;;;;;;4907460;29;20063;-80
2022/05/30 13:09:25;;;;;;;3.47;0.50;;;22.20;96.60;;;;;;4912614;29;20117;-80
2022/05/30 13:12:20;;;;;;;1.90;0.50;;;22.50;96.80;;;;;;4922374;29;20056;-79
2022/05/30 13:15:15;;;;;;;1.92;0.68;;;22.90;95.10;;;;;;4913404;29;20064;-80
2022/05/30 13:18:01;;;;;;;1.65;0.65;;;23.20;94.60;;;;;;4919888;29;20596;-81
2022/05/30 13:20:30;;;;;;;;;;;23.40;93.90;;;;;;4922906;29;20053;-81
2022/05/30 13:23:01;;;;;;;3.58;0.80;;;23.30;93.40;;;;;;4923691;29;19931;-80
2022/05/30 13:25:46;;;;;;;1.35;0.55;;;23.40;93.80;;;;;;4897099;29;20494;-81
2022/05/30 13:28:39;;;;;;;2.40;0.60;;;23.60;93.00;;;;;;4908394;29;20137;-80
2022/05/30 13:31:08;;;;;;;1.60;0.50;;;23.40;91.00;;;;;;4907441;29;20360;-81
2022/05/30 13:33:47;;;;;;;1.73;0.60;;;23.30;91.70;;;;;;4923650;29;20037;-80
2022/05/30 13:36:33;;;;;;;2.80;0.57;;;23.10;91.30;;;;;;4922739;29;20048;-81
2022/05/30 13:39:02;;;;;;;2.13;0.80;;;22.90;91.60;;;;;;4899147;29;20509;-80